Time;durP1;ratioP1;P1;durP2;ratioP2;P2;SDS_P1;SDS_P2;PMS_P1;PMS_P2;Temp;Humidity;BMP_temperature;BMP_pressure;BME280_temperature;BME280_humidity;BME280_pressure;Samples;Min_cycle;Max_cycle;Signal;HPM_P1;HPM_P2
2023/05/12 00:00:03;;;;;;;17.32;7.35;;;;;;;7.47;46.57;100381.22;1675844;83;21017;-63
2023/05/12 00:02:30;;;;;;;13.53;6.35;;;;;;;7.54;46.58;100397.09;1671279;84;21053;-63
2023/05/12 00:04:56;;;;;;;12.70;7.78;;;;;;;7.54;46.63;100399.69;1673198;84;20989;-63
2023/05/12 00:07:23;;;;;;;13.18;7.20;;;;;;;7.53;46.71;100400.56;1671898;84;21001;-63
2023/05/12 00:09:49;;;;;;;11.70;6.17;;;;;;;7.53;46.78;100388.87;1675068;83;21020;-63
2023/05/12 00:12:15;;;;;;;13.65;6.40;;;;;;;7.55;46.88;100396.19;1675759;83;21476;-63
2023/05/12 00:14:42;;;;;;;15.13;7.42;;;;;;;7.57;46.84;100397.02;1674094;84;21562;-63
2023/05/12 00:17:15;;;;;;;14.93;6.78;;;;;;;7.59;46.80;100398.69;1678399;83;20961;-63
2023/05/12 00:19:41;;;;;;;15.70;6.80;;;;;;;7.63;46.96;100390.36;1668892;84;21092;-63
2023/05/12 00:22:08;;;;;;;15.20;6.85;;;;;;;7.67;46.90;100395.88;1671558;84;21049;-63
2023/05/12 00:24:36;;;;;;;13.43;6.95;;;;;;;7.68;46.97;100397.61;1673336;84;21107;-63
2023/05/12 00:27:02;;;;;;;11.93;6.80;;;;;;;7.66;47.05;100398.08;1670733;84;21578;-63
2023/05/12 00:29:29;;;;;;;13.62;6.80;;;;;;;7.60;47.17;100398.23;1672025;84;21052;-63
2023/05/12 00:31:55;;;;;;;11.57;6.40;;;;;;;7.56;47.18;100399.19;1674101;84;20997;-63
2023/05/12 00:34:21;;;;;;;16.37;6.20;;;;;;;7.52;47.26;100406.66;1678300;84;21586;-63
2023/05/12 00:36:49;;;;;;;18.77;6.45;;;;;;;7.48;47.36;100397.21;1652511;84;21100;-63
2023/05/12 00:39:15;;;;;;;9.20;5.95;;;;;;;7.46;47.45;100408.11;1677908;83;21095;-63
2023/05/12 00:41:43;;;;;;;12.55;5.87;;;;;;;7.46;47.47;100405.52;1676929;84;21028;-63
2023/05/12 00:44:09;;;;;;;12.37;5.75;;;;;;;7.45;47.50;100410.28;1673667;84;21610;-63
2023/05/12 00:46:38;;;;;;;19.35;7.35;;;;;;;7.47;47.53;100411.11;1676276;84;21101;-63
2023/05/12 00:49:04;;;;;;;16.67;5.60;;;;;;;7.45;47.50;100411.16;1673856;84;21008;-63
2023/05/12 00:51:31;;;;;;;15.55;6.35;;;;;;;7.46;47.59;100412.01;1673069;84;20997;-63
2023/05/12 00:53:58;;;;;;;11.70;5.72;;;;;;;7.43;47.62;100412.08;1673757;84;21045;-63
2023/05/12 00:56:24;;;;;;;10.73;5.50;;;;;;;7.39;47.73;100412.16;1670815;84;21052;-63
2023/05/12 00:58:51;;;;;;;12.23;5.87;;;;;;;7.38;47.86;100418.22;1671663;84;21100;-63
2023/05/12 01:01:17;;;;;;;10.32;5.10;;;;;;;7.36;47.87;100416.55;1674096;83;21080;-63
2023/05/12 01:03:44;;;;;;;16.32;5.78;;;;;;;7.35;47.91;100426.09;1671678;84;21400;-63
2023/05/12 01:06:17;;;;;;;9.75;5.05;;;;;;;7.36;48.00;100425.19;1668823;84;20989;-63
2023/05/12 01:08:45;;;;;;;9.53;5.87;;;;;;;7.35;48.08;100416.99;1677039;84;21142;-63
2023/05/12 01:11:13;;;;;;;8.78;6.00;;;;;;;7.33;48.08;100422.66;1667842;84;20977;-62
2023/05/12 01:13:40;;;;;;;12.50;4.90;;;;;;;7.31;48.11;100427.06;1679637;84;21065;-62
2023/05/12 01:16:11;;;;;;;10.78;5.25;;;;;;;7.30;48.24;100425.33;1657440;84;21072;-62
2023/05/12 01:18:39;;;;;;;11.65;5.55;;;;;;;7.32;48.23;100431.36;1672076;83;20996;-62
2023/05/12 01:21:06;;;;;;;9.65;5.22;;;;;;;7.35;48.33;100433.88;1674727;84;20977;-62
2023/05/12 01:23:36;;;;;;;13.18;5.17;;;;;;;7.38;48.30;100433.81;1673930;84;21043;-62
2023/05/12 01:26:13;;;;;;;11.80;5.70;;;;;;;7.42;48.27;100431.14;1672793;84;21064;-62
2023/05/12 01:28:41;;;;;;;11.40;5.12;;;;;;;7.47;48.32;100434.49;1657810;84;21069;-62
2023/05/12 01:31:08;;;;;;;7.95;4.75;;;;;;;7.51;48.37;100436.14;1676561;83;20955;-62
2023/05/12 01:33:35;;;;;;;10.63;5.78;;;;;;;7.54;48.45;100438.67;1672163;84;21040;-62
2023/05/12 01:36:05;;;;;;;9.05;4.90;;;;;;;7.54;48.43;100433.47;1671413;84;21243;-63
2023/05/12 01:38:32;;;;;;;;;;;;;;;7.50;48.32;100431.81;1672359;84;21005;-62
2023/05/12 01:40:59;;;;;;;8.73;5.03;;;;;;;7.42;48.65;100435.88;1675996;84;21100;-62
2023/05/12 01:43:27;;;;;;;9.55;5.22;;;;;;;7.37;48.60;100442.50;1673845;84;21024;-62
2023/05/12 01:45:57;;;;;;;14.30;4.83;;;;;;;7.33;48.52;100448.64;1668850;83;21064;-62
2023/05/12 01:48:21;;;;;;;12.47;5.08;;;;;;;7.25;48.59;100442.76;1677169;84;21091;-62
2023/05/12 01:50:47;;;;;;;9.30;5.15;;;;;;;7.19;48.59;100446.80;1675673;83;20997;-62
2023/05/12 01:53:14;;;;;;;12.15;5.22;;;;;;;7.19;48.63;100445.50;1677526;83;21288;-62
2023/05/12 01:55:40;;;;;;;7.85;5.45;;;;;;;7.21;48.72;100448.92;1677056;84;21064;-62
2023/05/12 01:58:08;;;;;;;9.03;5.00;;;;;;;7.24;48.65;100450.16;1675045;84;20985;-62
2023/05/12 02:00:34;;;;;;;7.72;4.58;;;;;;;7.27;48.66;100444.89;1669701;84;21564;-62
2023/05/12 02:03:02;;;;;;;7.67;4.37;;;;;;;7.29;48.73;100447.02;1676716;84;21001;-62
2023/05/12 02:05:28;;;;;;;7.00;4.70;;;;;;;7.31;48.71;100447.84;1673461;84;20966;-62
2023/05/12 02:07:55;;;;;;;8.20;4.78;;;;;;;7.33;48.69;100447.34;1676657;84;21052;-62
2023/05/12 02:10:24;;;;;;;9.25;5.10;;;;;;;7.34;48.76;100446.47;1683039;84;21095;-62
2023/05/12 02:12:52;;;;;;;7.45;5.10;;;;;;;7.35;48.77;100449.47;1674839;84;21025;-62
2023/05/12 02:15:20;;;;;;;14.30;4.45;;;;;;;7.37;48.78;100442.50;1660978;84;20989;-62
2023/05/12 02:17:49;;;;;;;9.53;4.70;;;;;;;7.39;48.79;100448.53;1677592;83;21048;-62
2023/05/12 02:20:14;;;;;;;13.38;5.53;;;;;;;7.38;48.89;100452.00;1672356;84;21650;-62
2023/05/12 02:22:41;;;;;;;7.80;4.85;;;;;;;7.37;48.80;100454.20;1674682;84;21042;-62
2023/05/12 02:25:08;;;;;;;13.45;5.10;;;;;;;7.35;48.81;100448.17;1672409;84;21017;-62
2023/05/12 02:27:34;;;;;;;9.58;5.55;;;;;;;7.33;48.87;100447.34;1676294;84;21071;-62
2023/05/12 02:30:04;;;;;;;8.15;4.87;;;;;;;7.33;48.94;100453.84;1658100;84;21615;-62
2023/05/12 02:32:32;;;;;;;;;;;;;;;7.30;48.93;100451.31;1679551;84;21029;-62
2023/05/12 02:34:58;;;;;;;10.20;4.45;;;;;;;7.30;49.13;100450.02;1671981;83;20566;-62
2023/05/12 02:37:27;;;;;;;7.00;4.62;;;;;;;7.29;48.96;100449.61;1674668;83;21554;-63
2023/05/12 02:39:52;;;;;;;5.42;4.00;;;;;;;7.27;48.95;100453.98;1674290;84;21080;-62
2023/05/12 02:42:19;;;;;;;8.15;4.60;;;;;;;7.27;48.98;100450.53;1675106;84;21096;-62
2023/05/12 02:44:51;;;;;;;6.37;4.25;;;;;;;7.29;49.02;100456.11;1668933;84;21171;-62
2023/05/12 02:47:15;;;;;;;10.20;3.90;;;;;;;7.30;49.06;100453.91;1673487;84;21048;-62
2023/05/12 02:49:42;;;;;;;10.20;4.30;;;;;;;7.33;49.02;100457.73;1669129;83;21005;-62
2023/05/12 02:52:13;;;;;;;6.80;4.10;;;;;;;7.33;49.11;100453.84;1675838;84;21036;-62
2023/05/12 02:54:42;;;;;;;8.05;4.83;;;;;;;7.36;49.07;100456.36;1674903;84;21068;-62
2023/05/12 02:57:11;;;;;;;9.98;4.05;;;;;;;7.38;49.15;100452.00;1673161;84;21126;-62
2023/05/12 02:59:40;;;;;;;8.70;4.28;;;;;;;7.42;49.13;100462.31;1679375;84;21504;-62
2023/05/12 03:02:07;;;;;;;6.95;4.45;;;;;;;7.42;49.09;100461.86;1673812;83;22279;-62
2023/05/12 03:04:34;;;;;;;6.80;3.90;;;;;;;7.44;49.18;100464.45;1674428;84;21634;-62
2023/05/12 03:07:00;;;;;;;9.75;4.33;;;;;;;7.46;49.18;100460.08;1675683;84;21568;-62
2023/05/12 03:09:26;;;;;;;10.80;3.87;;;;;;;7.47;49.18;100468.27;1678791;83;20973;-62
2023/05/12 03:11:52;;;;;;;6.20;3.33;;;;;;;7.49;49.24;100458.70;1678425;84;21028;-62
2023/05/12 03:14:19;;;;;;;11.28;4.33;;;;;;;7.50;49.23;100468.20;1676346;84;21091;-62
2023/05/12 03:16:47;;;;;;;6.75;3.70;;;;;;;7.52;49.30;100463.83;1677793;84;21019;-62
2023/05/12 03:19:13;;;;;;;7.10;3.77;;;;;;;7.59;49.38;100468.86;1673849;84;21571;-62
2023/05/12 03:21:39;;;;;;;9.63;4.95;;;;;;;7.65;49.46;100460.06;1671153;84;21506;-62
2023/05/12 03:24:07;;;;;;;9.15;4.53;;;;;;;7.72;49.40;100464.21;1678572;84;21622;-62
2023/05/12 03:26:35;;;;;;;10.32;4.05;;;;;;;7.78;49.50;100470.56;1659360;84;21579;-62
2023/05/12 03:29:01;;;;;;;13.90;4.20;;;;;;;7.85;49.47;100473.44;1673193;84;21115;-62
2023/05/12 03:31:27;;;;;;;8.63;4.20;;;;;;;7.92;49.63;100471.53;1677200;84;21040;-62
2023/05/12 03:33:53;;;;;;;9.05;4.50;;;;;;;7.99;49.55;100467.05;1670316;84;21001;-62
2023/05/12 03:36:23;;;;;;;12.88;4.25;;;;;;;8.05;49.53;100465.59;1674966;83;21047;-63
2023/05/12 03:38:49;;;;;;;9.73;4.37;;;;;;;8.11;49.53;100466.73;1679101;83;21040;-62
2023/05/12 03:41:20;;;;;;;9.55;3.77;;;;;;;8.16;49.60;100467.48;1677537;84;21066;-63
2023/05/12 03:43:44;;;;;;;11.97;4.67;;;;;;;8.23;49.56;100468.16;1617012;87;21617;-62
2023/05/12 03:46:13;;;;;;;7.12;3.83;;;;;;;8.30;49.73;100467.97;1674072;84;21713;-62
2023/05/12 03:48:41;;;;;;;7.87;3.52;;;;;;;8.39;49.69;100474.72;1668722;84;21110;-62
2023/05/12 03:51:09;;;;;;;9.50;3.90;;;;;;;8.47;49.60;100473.22;1675032;84;21488;-63
2023/05/12 03:53:41;;;;;;;11.05;4.20;;;;;;;8.53;49.64;100469.14;1672719;84;21080;-62
2023/05/12 03:56:17;;;;;;;24.20;5.47;;;;;;;8.58;49.58;100467.28;1674293;84;21096;-63
2023/05/12 03:58:50;;;;;;;10.58;3.72;;;;;;;8.65;49.67;100468.80;1672646;84;21622;-63
2023/05/12 04:01:22;;;;;;;7.03;4.25;;;;;;;8.76;49.81;100474.17;1670737;84;21111;-62
2023/05/12 04:03:47;;;;;;;6.20;3.95;;;;;;;8.86;49.79;100470.42;1672203;84;21009;-63
2023/05/12 04:06:22;;;;;;;13.05;4.20;;;;;;;8.96;49.74;100471.42;1652091;84;21690;-63
2023/05/12 04:08:51;;;;;;;11.22;4.62;;;;;;;9.06;49.50;100466.79;1677399;84;21155;-62
2023/05/12 04:11:17;;;;;;;9.88;4.05;;;;;;;9.18;49.50;100469.02;1673995;84;21076;-63
2023/05/12 04:13:47;;;;;;;11.38;3.83;;;;;;;9.28;49.49;100476.13;1658082;84;21045;-63
2023/05/12 04:16:18;;;;;;;4.95;3.70;;;;;;;9.36;49.41;100479.82;1654529;84;21084;-63
2023/05/12 04:18:48;;;;;;;7.25;4.00;;;;;;;9.47;49.49;100475.13;1659469;84;21064;-62
2023/05/12 04:21:14;;;;;;;;;;;;;;;9.55;49.58;100477.05;1672799;84;21032;-62
2023/05/12 04:23:40;;;;;;;9.20;4.17;;;;;;;9.65;49.44;100468.48;1671098;84;20219;-62
2023/05/12 04:26:06;;;;;;;10.58;4.25;;;;;;;9.75;49.52;100469.06;1674961;84;20989;-62
2023/05/12 04:28:32;;;;;;;8.93;3.25;;;;;;;9.89;49.32;100473.80;1673392;83;21122;-62
2023/05/12 04:31:03;;;;;;;15.45;4.40;;;;;;;10.03;49.27;100475.08;1673466;84;20982;-62
2023/05/12 04:33:30;;;;;;;8.33;3.35;;;;;;;10.16;49.17;100479.88;1674480;84;21088;-62
2023/05/12 04:35:56;;;;;;;4.10;2.63;;;;;;;10.31;49.20;100472.89;1674308;84;21080;-62
2023/05/12 04:38:25;;;;;;;15.15;3.92;;;;;;;10.46;49.19;100476.27;1658721;84;21041;-63
2023/05/12 04:40:53;;;;;;;8.00;3.58;;;;;;;10.62;48.94;100473.12;1674152;84;21037;-62
2023/05/12 04:43:21;;;;;;;22.48;4.75;;;;;;;10.83;48.74;100471.03;1656908;84;21099;-62
2023/05/12 04:45:49;;;;;;;7.97;3.10;;;;;;;11.09;48.90;100488.81;1671400;84;21005;-63
2023/05/12 04:48:18;;;;;;;8.10;2.70;;;;;;;11.09;48.90;100488.81;1670881;84;21072;-62
2023/05/12 04:50:44;;;;;;;10.70;3.65;;;;;;;11.26;48.52;100487.75;1671752;84;21063;-62
2023/05/12 04:53:11;;;;;;;8.55;2.95;;;;;;;11.41;48.59;100487.16;1674464;84;21582;-62
2023/05/12 04:55:37;;;;;;;7.12;3.20;;;;;;;11.55;48.56;100490.55;1672843;84;21615;-62
2023/05/12 04:58:07;;;;;;;7.00;3.50;;;;;;;11.74;48.28;100473.67;1670483;84;21040;-62
2023/05/12 05:00:35;;;;;;;8.78;3.00;;;;;;;12.00;47.83;100487.49;1659456;84;21520;-62
2023/05/12 05:03:02;;;;;;;5.70;3.10;;;;;;;12.00;47.83;100487.49;1672452;84;21080;-64
2023/05/12 05:05:29;;;;;;;8.65;2.75;;;;;;;12.15;47.85;100485.54;1675033;84;21198;-64
2023/05/12 05:07:55;;;;;;;6.25;2.90;;;;;;;12.31;48.05;100491.00;1670451;84;21050;-65
2023/05/12 05:10:21;;;;;;;8.47;2.97;;;;;;;12.46;47.85;100492.10;1675829;84;20954;-64
2023/05/12 05:12:47;;;;;;;9.18;3.20;;;;;;;12.61;46.77;100483.59;1676009;84;20966;-64
2023/05/12 05:15:14;;;;;;;11.60;2.90;;;;;;;12.76;47.44;100480.30;1676362;83;21542;-65
2023/05/12 05:17:41;;;;;;;10.28;3.35;;;;;;;12.92;46.80;100482.25;1671882;84;21021;-64
2023/05/12 05:20:11;;;;;;;7.00;2.95;;;;;;;13.09;46.60;100484.95;1655614;84;21016;-66
2023/05/12 05:22:38;;;;;;;5.60;2.87;;;;;;;13.24;47.05;100485.17;1671339;84;21075;-64
2023/05/12 05:25:05;;;;;;;10.35;2.62;;;;;;;13.43;46.11;100484.27;1673136;84;21013;-65
2023/05/12 05:27:32;;;;;;;6.78;3.00;;;;;;;13.55;45.57;100488.08;1671556;84;21008;-67
2023/05/12 05:29:59;;;;;;;8.15;3.15;;;;;;;13.66;46.33;100487.11;1665769;84;21033;-65
2023/05/12 05:32:25;;;;;;;7.83;3.00;;;;;;;13.79;45.10;100493.10;1668851;84;20997;-65
2023/05/12 05:34:51;;;;;;;27.17;4.40;;;;;;;13.92;45.32;100499.47;1669348;84;21074;-65
2023/05/12 05:37:18;;;;;;;6.33;2.95;;;;;;;14.01;44.96;100493.75;1673958;84;21024;-63
2023/05/12 05:39:44;;;;;;;9.68;2.77;;;;;;;14.13;43.89;100498.02;1673809;84;21048;-62
2023/05/12 05:42:11;;;;;;;7.55;2.45;;;;;;;14.23;43.42;100505.83;1675704;84;21052;-63
2023/05/12 05:44:37;;;;;;;8.65;2.75;;;;;;;14.32;43.15;100513.24;1670275;84;21682;-63
2023/05/12 05:47:04;;;;;;;8.95;2.67;;;;;;;14.43;42.05;100510.08;1667073;84;21594;-63
2023/05/12 05:49:30;;;;;;;4.72;2.75;;;;;;;14.54;41.47;100513.89;1671023;84;21091;-64
2023/05/12 05:51:56;;;;;;;10.58;3.10;;;;;;;14.66;41.75;100511.56;1671319;84;22120;-64
2023/05/12 05:54:24;;;;;;;6.53;2.33;;;;;;;14.77;42.83;100511.84;1669107;84;21008;-63
2023/05/12 05:56:50;;;;;;;10.15;3.17;;;;;;;14.88;41.79;100512.14;1674712;83;21040;-64
2023/05/12 05:59:16;;;;;;;30.82;3.52;;;;;;;14.97;42.60;100512.11;1672713;84;21001;-62
2023/05/12 06:01:43;;;;;;;6.03;2.87;;;;;;;15.07;41.25;100515.09;1671426;84;21033;-64
2023/05/12 06:04:10;;;;;;;7.90;3.87;;;;;;;15.17;42.11;100524.20;1673267;84;20986;-64
2023/05/12 06:06:36;;;;;;;12.87;4.03;;;;;;;15.24;41.98;100525.58;1676199;84;21623;-63
2023/05/12 06:09:02;;;;;;;16.52;4.10;;;;;;;15.29;42.30;100520.93;1667761;84;21263;-63
2023/05/12 06:11:29;;;;;;;10.70;4.17;;;;;;;15.48;42.11;100518.59;1674635;84;21088;-63
2023/05/12 06:13:56;;;;;;;17.57;4.53;;;;;;;15.58;40.45;100521.11;1676109;83;21056;-63
2023/05/12 06:16:22;;;;;;;10.38;4.05;;;;;;;15.69;40.20;100534.56;1668095;84;20993;-64
2023/05/12 06:18:48;;;;;;;9.43;3.47;;;;;;;15.77;40.81;100529.72;1669568;84;20938;-64
2023/05/12 06:21:15;;;;;;;7.10;2.77;;;;;;;15.87;39.54;100530.88;1668432;84;21546;-63
2023/05/12 06:23:41;;;;;;;13.47;3.37;;;;;;;15.95;39.71;100530.93;1670115;83;21064;-63
2023/05/12 06:26:08;;;;;;;5.90;2.92;;;;;;;16.05;40.14;100534.75;1676659;84;21012;-63
2023/05/12 06:28:36;;;;;;;12.88;3.25;;;;;;;16.29;40.65;100530.67;1657125;84;21404;-64
2023/05/12 06:31:09;;;;;;;10.00;3.17;;;;;;;16.55;39.49;100540.16;1672296;84;21009;-63
2023/05/12 06:33:40;;;;;;;5.50;2.80;;;;;;;16.72;39.62;100528.16;1673658;84;21108;-63
2023/05/12 06:36:11;;;;;;;11.75;3.20;;;;;;;16.99;39.23;100534.05;1661186;84;21068;-63
2023/05/12 06:38:37;;;;;;;10.23;3.12;;;;;;;17.28;38.60;100541.95;1671863;84;21544;-63
2023/05/12 06:41:03;;;;;;;5.73;2.70;;;;;;;17.54;37.17;100527.97;1675857;84;21080;-64
2023/05/12 06:43:30;;;;;;;12.43;3.65;;;;;;;17.80;37.94;100533.41;1664361;84;21536;-63
2023/05/12 06:46:00;;;;;;;7.28;2.70;;;;;;;18.21;38.72;100531.20;1675005;84;21084;-63
2023/05/12 06:48:27;;;;;;;27.22;3.70;;;;;;;18.81;37.99;100535.95;1654165;84;21035;-64
2023/05/12 06:50:54;;;;;;;9.90;2.72;;;;;;;19.38;36.13;100534.18;1648527;85;21863;-64
2023/05/12 06:53:20;;;;;;;10.80;2.77;;;;;;;19.88;37.40;100536.34;1651966;85;21737;-65
2023/05/12 06:55:46;;;;;;;6.67;2.83;;;;;;;20.39;36.63;100530.38;1642364;85;21058;-64
2023/05/12 06:58:12;;;;;;;14.47;3.15;;;;;;;20.90;35.58;100530.05;1644229;85;21058;-64
2023/05/12 07:00:39;;;;;;;9.68;2.60;;;;;;;21.29;36.18;100526.56;1643344;85;21114;-64
2023/05/12 07:03:08;;;;;;;8.97;2.60;;;;;;;21.61;36.41;100524.01;1649413;85;21067;-64
2023/05/12 07:05:33;;;;;;;19.23;3.62;;;;;;;22.00;34.94;100526.55;1649807;85;21456;-64
2023/05/12 07:07:59;;;;;;;19.90;3.25;;;;;;;22.47;35.78;100532.42;1647067;85;21561;-64
2023/05/12 07:10:26;;;;;;;15.17;3.33;;;;;;;22.89;34.59;100525.75;1651135;85;21063;-63
2023/05/12 07:12:53;;;;;;;13.72;3.05;;;;;;;23.55;34.58;100525.80;1648529;85;21106;-63
2023/05/12 07:15:20;;;;;;;14.40;2.60;;;;;;;23.94;33.31;100525.91;1649903;85;21035;-64
2023/05/12 07:17:46;;;;;;;9.00;2.45;;;;;;;24.26;32.60;100519.80;1648955;85;21023;-64
2023/05/12 07:20:12;;;;;;;11.57;2.67;;;;;;;24.72;33.62;100520.88;1646087;85;21553;-63
2023/05/12 07:22:39;;;;;;;11.57;3.22;;;;;;;25.50;31.00;100524.60;1648373;85;21693;-63
2023/05/12 07:25:07;;;;;;;11.18;2.50;;;;;;;26.22;31.57;100530.05;1649086;85;21082;-64
2023/05/12 07:27:33;;;;;;;21.77;3.50;;;;;;;26.38;27.92;100536.02;1653432;85;21066;-64
2023/05/12 07:29:59;;;;;;;11.48;3.55;;;;;;;26.77;30.45;100528.45;1653500;85;21163;-64
2023/05/12 07:32:26;;;;;;;18.35;3.60;;;;;;;27.39;29.42;100537.20;1650044;85;21114;-64
2023/05/12 07:34:52;;;;;;;20.02;3.62;;;;;;;27.77;30.00;100534.12;1649721;85;21082;-64
2023/05/12 07:37:18;;;;;;;18.25;3.20;;;;;;;28.02;28.66;100532.34;1650028;85;21035;-64
2023/05/12 07:39:44;;;;;;;15.03;2.33;;;;;;;28.38;27.88;100541.43;1647084;85;21653;-64
2023/05/12 07:42:11;;;;;;;15.35;3.05;;;;;;;28.72;26.67;100548.80;1649345;85;20992;-63
2023/05/12 07:44:37;;;;;;;10.30;2.98;;;;;;;28.61;26.37;100533.55;1650534;85;21023;-63
2023/05/12 07:47:04;;;;;;;15.78;2.85;;;;;;;28.22;23.88;100544.44;1659058;84;21175;-64
2023/05/12 07:49:31;;;;;;;12.43;2.58;;;;;;;28.00;24.39;100535.19;1679959;84;21088;-64
2023/05/12 07:51:57;;;;;;;16.00;3.00;;;;;;;27.87;24.09;100533.00;1671969;84;20973;-64
2023/05/12 07:54:23;;;;;;;13.65;2.77;;;;;;;28.03;23.25;100544.75;1668703;84;21091;-64
2023/05/12 07:56:50;;;;;;;15.90;2.77;;;;;;;28.51;24.65;100540.42;1671098;84;21547;-64
2023/05/12 07:59:16;;;;;;;12.15;2.85;;;;;;;28.26;22.30;100544.45;1672851;84;21615;-64
2023/05/12 08:01:43;;;;;;;10.55;2.70;;;;;;;28.27;23.08;100543.44;1672980;83;21614;-64
2023/05/12 08:04:09;;;;;;;7.80;2.55;;;;;;;28.37;22.75;100560.70;1675331;84;21037;-64
2023/05/12 08:06:36;;;;;;;5.70;2.22;;;;;;;28.48;20.43;100556.88;1680079;84;21055;-64
2023/05/12 08:09:02;;;;;;;;;;;;;;;28.51;20.88;100548.00;1675504;84;21651;-64
2023/05/12 08:11:28;;;;;;;6.70;2.33;;;;;;;28.57;20.11;100555.89;1674636;84;20177;-63
2023/05/12 08:13:55;;;;;;;13.00;2.00;;;;;;;28.84;21.96;100548.45;1674849;84;20992;-63
2023/05/12 08:16:21;;;;;;;19.17;2.92;;;;;;;28.85;21.16;100548.77;1673227;84;20989;-63
2023/05/12 08:18:47;;;;;;;;;;;;;;;29.51;21.34;100548.91;1673108;84;21017;-64
2023/05/12 08:21:14;;;;;;;6.20;2.35;;;;;;;29.49;17.42;100559.00;1674065;84;20128;-63
2023/05/12 08:23:40;;;;;;;;;;;;;;;29.33;19.86;100560.45;1675747;84;21109;-64
2023/05/12 08:26:06;;;;;;;;;;;;;;;29.06;19.46;100552.30;1675307;84;20244;-63
2023/05/12 08:28:32;;;;;;;;;;;;;;;29.12;19.89;100545.70;1672833;84;20197;-64
2023/05/12 08:30:57;;;;;;;;;;;;;;;29.31;18.92;100553.05;1676506;84;20122;-64
2023/05/12 08:33:23;;;;;;;;;;;;;;;28.87;17.84;100565.58;1675011;84;20179;-63
2023/05/12 08:35:49;;;;;;;;;;;;;;;28.71;18.74;100571.32;1676095;83;20176;-64
2023/05/12 08:38:15;;;;;;;;;;;;;;;29.12;18.67;100556.46;1675211;84;20223;-64
2023/05/12 08:40:48;;;;;;;6.58;2.00;;;;;;;28.85;17.94;100566.23;1675543;84;20188;-64
2023/05/12 08:43:28;;;;;;;5.83;2.20;;;;;;;29.01;19.06;100564.86;1675886;83;21175;-64
2023/05/12 08:46:01;;;;;;;3.30;1.90;;;;;;;28.63;17.38;100583.42;1674889;84;21607;-63
2023/05/12 08:48:30;;;;;;;7.25;2.60;;;;;;;28.54;18.56;100560.27;1666932;84;21030;-63
2023/05/12 08:50:59;;;;;;;8.20;2.12;;;;;;;28.43;18.19;100564.60;1676290;84;21589;-63
2023/05/12 08:53:28;;;;;;;4.22;1.90;;;;;;;28.24;17.21;100575.99;1675275;84;21052;-63
2023/05/12 08:55:58;;;;;;;13.35;2.80;;;;;;;28.50;18.14;100569.14;1679578;84;20997;-63
2023/05/12 08:58:26;;;;;;;6.87;2.00;;;;;;;28.58;18.04;100557.56;1675069;83;21121;-63
2023/05/12 09:00:52;;;;;;;8.28;2.42;;;;;;;28.50;18.08;100554.88;1680774;84;21620;-63
2023/05/12 09:03:20;;;;;;;8.98;2.40;;;;;;;28.38;18.02;100558.38;1674862;83;20997;-63
2023/05/12 09:05:47;;;;;;;6.85;2.20;;;;;;;28.71;18.36;100549.83;1677839;84;21111;-63
2023/05/12 09:08:15;;;;;;;12.20;2.35;;;;;;;29.34;18.30;100539.25;1677234;84;21028;-64
2023/05/12 09:10:41;;;;;;;9.48;1.98;;;;;;;29.62;17.13;100559.28;1676739;83;21044;-63
2023/05/12 09:13:12;;;;;;;;;;;;;;;29.96;17.11;100540.60;1679040;84;21064;-63
2023/05/12 09:15:40;;;;;;;3.15;1.70;;;;;;;30.45;17.64;100538.91;1670854;84;20440;-63
2023/05/12 09:18:07;;;;;;;31.93;3.42;;;;;;;31.01;17.46;100551.20;1677882;83;21064;-63
2023/05/12 09:20:33;;;;;;;11.97;2.12;;;;;;;30.48;16.86;100535.84;1677836;84;21063;-63
2023/05/12 09:23:15;;;;;;;6.75;2.15;;;;;;;31.20;17.54;100537.12;1673475;83;21562;-63
2023/05/12 09:25:41;;;;;;;6.67;1.98;;;;;;;32.39;17.47;100534.10;1678615;83;21056;-63
2023/05/12 09:28:08;;;;;;;3.80;1.60;;;;;;;32.55;15.87;100531.15;1676069;83;21022;-64
2023/05/12 09:30:37;;;;;;;17.87;2.30;;;;;;;31.76;15.23;100542.84;1675532;84;20991;-63
2023/05/12 09:33:11;;;;;;;2.80;1.70;;;;;;;31.76;15.70;100534.73;1677325;84;21044;-62
2023/05/12 09:35:43;;;;;;;5.50;1.85;;;;;;;32.00;16.16;100521.91;1677272;84;21015;-62
2023/05/12 09:38:12;;;;;;;8.95;1.75;;;;;;;32.84;15.67;100540.08;1675476;84;21023;-62
2023/05/12 09:40:38;;;;;;;9.93;2.15;;;;;;;33.09;16.46;100518.30;1674887;84;21651;-62
2023/05/12 09:43:06;;;;;;;10.53;2.00;;;;;;;33.35;15.84;100520.27;1675689;83;21083;-62
2023/05/12 09:45:41;;;;;;;3.58;1.77;;;;;;;33.34;15.99;100503.73;1675570;83;21602;-62
2023/05/12 09:48:12;;;;;;;8.70;2.35;;;;;;;34.35;15.61;100516.45;1672646;84;21072;-62
2023/05/12 09:50:47;;;;;;;5.42;2.27;;;;;;;34.56;14.95;100521.36;1675112;84;21032;-64
2023/05/12 09:53:19;;;;;;;4.25;2.00;;;;;;;34.07;14.92;100518.02;1671890;84;21033;-63
2023/05/12 09:55:43;;;;;;;4.87;1.70;;;;;;;33.80;15.92;100502.20;1671162;84;21005;-62
2023/05/12 09:58:11;;;;;;;9.98;2.20;;;;;;;33.91;15.47;100507.02;1670297;84;20997;-62
2023/05/12 10:00:38;;;;;;;7.45;2.30;;;;;;;33.01;15.87;100502.75;1670248;84;20989;-63
2023/05/12 10:03:13;;;;;;;17.48;2.40;;;;;;;33.28;15.68;100517.25;1667537;84;20967;-64
2023/05/12 10:05:49;;;;;;;7.80;2.33;;;;;;;33.01;15.37;100519.81;1674219;84;21083;-62
2023/05/12 10:08:22;;;;;;;7.62;2.17;;;;;;;32.83;15.64;100505.96;1663417;84;21104;-61
2023/05/12 10:10:57;;;;;;;11.43;2.35;;;;;;;32.71;15.97;100513.28;1672446;84;21059;-64
2023/05/12 10:13:21;;;;;;;7.67;2.20;;;;;;;33.95;16.02;100497.45;1667996;84;21016;-63
2023/05/12 10:15:51;;;;;;;6.25;2.10;;;;;;;33.98;15.47;100502.45;1670735;84;21009;-64
2023/05/12 10:18:18;;;;;;;7.85;2.30;;;;;;;32.97;15.62;100498.23;1671681;84;21020;-65
2023/05/12 10:20:45;;;;;;;5.75;2.60;;;;;;;32.96;15.74;100514.13;1672218;84;21000;-69
2023/05/12 10:23:13;;;;;;;10.03;2.10;;;;;;;32.54;15.72;100515.94;1674552;84;20992;-65
2023/05/12 10:25:43;;;;;;;12.30;2.45;;;;;;;32.91;15.83;100484.99;1668520;84;21102;-65
2023/05/12 10:28:10;;;;;;;10.32;2.22;;;;;;;33.33;14.38;100530.98;1668601;84;21558;-64
2023/05/12 10:30:39;;;;;;;5.00;2.00;;;;;;;32.62;15.28;100504.15;1674974;84;21526;-64
2023/05/12 10:33:10;;;;;;;7.87;2.12;;;;;;;32.91;15.48;100494.95;1674180;84;21047;-64
2023/05/12 10:35:38;;;;;;;4.67;1.90;;;;;;;33.16;14.57;100507.00;1667119;84;21055;-65
2023/05/12 10:38:08;;;;;;;8.93;2.40;;;;;;;32.64;14.21;100532.66;1672880;84;21044;-65
2023/05/12 10:40:54;;;;;;;2.92;1.70;;;;;;;32.23;15.15;100522.53;1672405;84;21559;-63
2023/05/12 10:43:28;;;;;;;9.23;1.85;;;;;;;32.11;15.04;100505.19;1672484;84;21052;-65
2023/05/12 10:46:16;;;;;;;5.85;2.00;;;;;;;33.20;15.50;100493.37;1675688;83;21001;-65
2023/05/12 10:49:05;;;;;;;11.75;1.82;;;;;;;34.05;14.79;100491.64;1676225;84;21068;-64
2023/05/12 10:51:38;;;;;;;7.03;1.72;;;;;;;32.58;14.81;100495.61;1667630;84;21044;-62
2023/05/12 10:54:08;;;;;;;6.33;1.90;;;;;;;32.62;15.12;100488.76;1669713;84;21090;-64
2023/05/12 10:56:41;;;;;;;7.85;2.47;;;;;;;34.04;14.97;100485.39;1676312;83;21032;-63
2023/05/12 10:59:18;;;;;;;7.10;2.00;;;;;;;35.22;14.50;100500.87;1671502;84;21068;-63
2023/05/12 11:02:08;;;;;;;3.87;1.82;;;;;;;35.45;14.56;100487.29;1671382;84;21040;-63
2023/05/12 11:04:47;;;;;;;5.92;1.70;;;;;;;34.18;14.10;100494.89;1681545;84;21072;-63
2023/05/12 11:07:25;;;;;;;11.85;2.10;;;;;;;33.12;14.35;100494.89;1674882;84;20976;-62
2023/05/12 11:09:50;;;;;;;9.73;2.10;;;;;;;32.92;14.48;100508.81;1674422;83;21099;-63
2023/05/12 11:12:16;;;;;;;4.00;2.12;;;;;;;31.68;14.74;100502.45;1671986;84;21036;-62
2023/05/12 11:14:44;;;;;;;12.40;2.40;;;;;;;31.17;14.85;100490.30;1673974;84;21064;-64
2023/05/12 11:17:11;;;;;;;4.67;1.72;;;;;;;31.10;15.21;100486.69;1673779;84;21047;-64
2023/05/12 11:19:39;;;;;;;11.75;2.15;;;;;;;31.42;15.37;100492.19;1674715;84;21578;-63
2023/05/12 11:22:12;;;;;;;4.08;2.00;;;;;;;31.32;15.07;100485.72;1676360;84;21074;-63
2023/05/12 11:24:37;;;;;;;7.97;2.60;;;;;;;31.37;15.30;100491.42;1670749;84;21094;-63
2023/05/12 11:27:05;;;;;;;4.97;1.50;;;;;;;31.33;15.05;100499.52;1679427;84;20957;-62
2023/05/12 11:29:33;;;;;;;8.50;2.08;;;;;;;30.65;15.42;100496.10;1674744;84;21527;-63